Time;durP1;ratioP1;P1;durP2;ratioP2;P2;SDS_P1;SDS_P2;PMS_P1;PMS_P2;Temp;Humidity;BMP_temperature;BMP_pressure;BME280_temperature;BME280_humidity;BME280_pressure;Samples;Min_cycle;Max_cycle;Signal;HPM_P1;HPM_P2
2024/01/11 00:00:45;;;;;;;31.53;19.23;;;0.00;99.90;;;;;;5021293;28;20566;-67
2024/01/11 00:03:10;;;;;;;35.93;22.50;;;0.00;99.90;;;;;;5011439;28;20446;-67
2024/01/11 00:05:36;;;;;;;31.90;19.40;;;0.00;99.90;;;;;;5020336;28;20179;-67
2024/01/11 00:08:02;;;;;;;31.87;19.87;;;0.00;99.90;;;;;;5014720;28;20198;-67
2024/01/11 00:10:28;;;;;;;38.77;22.00;;;0.00;99.90;;;;;;5021870;28;20786;-66
2024/01/11 00:12:53;;;;;;;33.90;21.07;;;0.00;99.90;;;;;;5016723;28;20518;-66
2024/01/11 00:15:19;;;;;;;34.30;19.23;;;-0.10;99.90;;;;;;5019412;28;20185;-66
2024/01/11 00:17:45;;;;;;;34.43;21.57;;;-0.10;99.90;;;;;;5018855;28;20212;-66
2024/01/11 00:20:11;;;;;;;38.23;22.70;;;-0.10;99.90;;;;;;5017188;28;20654;-66
2024/01/11 00:22:36;;;;;;;38.33;22.50;;;-0.10;99.90;;;;;;5018269;28;20186;-66
2024/01/11 00:25:03;;;;;;;42.17;21.83;;;-0.10;99.90;;;;;;5015272;28;20231;-66
2024/01/11 00:27:29;;;;;;;37.70;20.20;;;-0.10;99.90;;;;;;5020436;28;20179;-67
2024/01/11 00:29:54;;;;;;;39.17;20.17;;;-0.10;99.90;;;;;;5016576;28;20434;-66
2024/01/11 00:32:23;;;;;;;38.40;21.40;;;-0.10;99.90;;;;;;5016779;28;20423;-66
2024/01/11 00:34:48;;;;;;;34.87;19.90;;;-0.10;99.90;;;;;;5014828;28;20251;-66
2024/01/11 00:37:14;;;;;;;40.67;23.90;;;-0.10;99.90;;;;;;5015071;28;20471;-66
2024/01/11 00:39:40;;;;;;;34.70;21.77;;;-0.10;99.90;;;;;;5016492;28;20219;-66
2024/01/11 00:42:05;;;;;;;40.87;21.30;;;-0.20;99.90;;;;;;5010354;28;20216;-66
2024/01/11 00:44:31;;;;;;;35.33;21.53;;;-0.20;99.90;;;;;;5015248;28;21310;-66
2024/01/11 00:46:57;;;;;;;30.97;19.50;;;-0.20;99.90;;;;;;5014032;28;20183;-66
2024/01/11 00:49:22;;;;;;;41.07;21.90;;;-0.30;99.90;;;;;;5018512;28;20183;-66
2024/01/11 00:51:48;;;;;;;42.07;20.40;;;-0.30;99.90;;;;;;5013920;28;20600;-66
2024/01/11 00:54:13;;;;;;;41.70;23.03;;;-0.30;99.90;;;;;;5015336;28;21505;-66
2024/01/11 00:56:39;;;;;;;39.37;21.77;;;-0.30;99.90;;;;;;5018236;28;20187;-66
2024/01/11 00:59:04;;;;;;;40.13;21.40;;;-0.30;99.90;;;;;;5013820;28;20267;-66
2024/01/11 01:01:30;;;;;;;36.20;21.07;;;-0.30;99.90;;;;;;5018656;28;20302;-66
2024/01/11 01:03:55;;;;;;;35.63;20.33;;;-0.40;99.90;;;;;;5021503;28;20208;-66
2024/01/11 01:06:21;;;;;;;37.30;21.17;;;-0.40;99.90;;;;;;5017679;28;20187;-66
2024/01/11 01:08:46;;;;;;;39.83;21.07;;;-0.40;99.90;;;;;;5015402;28;20286;-66
2024/01/11 01:11:12;;;;;;;35.07;21.40;;;-0.40;99.90;;;;;;5008081;28;20199;-66
2024/01/11 01:13:38;;;;;;;34.87;22.97;;;-0.40;99.90;;;;;;5013881;28;20203;-66
2024/01/11 01:16:04;;;;;;;47.53;24.33;;;-0.40;99.90;;;;;;5021248;28;20223;-66
2024/01/11 01:18:29;;;;;;;39.17;21.53;;;-0.40;99.90;;;;;;5012647;28;20773;-67
2024/01/11 01:20:55;;;;;;;37.00;20.23;;;-0.40;99.90;;;;;;5011646;28;20203;-66
2024/01/11 01:23:21;;;;;;;45.77;23.70;;;-0.40;99.90;;;;;;5022420;28;20216;-66
2024/01/11 01:25:46;;;;;;;38.97;22.07;;;-0.50;99.90;;;;;;5022978;28;20419;-66
2024/01/11 01:28:12;;;;;;;41.80;23.40;;;-0.50;99.90;;;;;;5013141;28;20188;-65
2024/01/11 01:30:37;;;;;;;35.80;22.23;;;-0.50;99.90;;;;;;5018802;28;20677;-65
2024/01/11 01:33:03;;;;;;;35.77;22.20;;;-0.50;99.90;;;;;;5011282;28;20196;-65
2024/01/11 01:35:29;;;;;;;35.97;21.43;;;-0.50;99.90;;;;;;5018767;28;20184;-65
2024/01/11 01:37:54;;;;;;;37.33;22.20;;;-0.50;99.90;;;;;;5015092;28;20495;-65
2024/01/11 01:40:20;;;;;;;31.87;21.00;;;-0.50;99.90;;;;;;5010661;28;20204;-64
2024/01/11 01:42:46;;;;;;;36.73;22.07;;;-0.50;99.90;;;;;;5018471;28;20450;-65
2024/01/11 01:45:12;;;;;;;39.20;24.27;;;-0.50;99.90;;;;;;5010841;28;20182;-65
2024/01/11 01:47:43;;;;;;;35.03;21.97;;;-0.50;99.90;;;;;;5016186;28;20951;-65
2024/01/11 01:50:11;;;;;;;39.10;22.17;;;-0.50;99.90;;;;;;5017187;28;20847;-65
2024/01/11 01:52:37;;;;;;;46.10;24.10;;;-0.60;99.90;;;;;;5016242;28;20445;-65
2024/01/11 01:55:05;;;;;;;36.07;21.70;;;-0.50;99.90;;;;;;5015747;28;20440;-65
2024/01/11 01:57:32;;;;;;;35.50;21.30;;;-0.60;99.90;;;;;;5015185;28;20422;-65
2024/01/11 01:59:59;;;;;;;34.00;22.20;;;-0.60;99.90;;;;;;5012982;28;20913;-66
2024/01/11 02:02:25;;;;;;;42.37;23.53;;;-0.60;99.90;;;;;;5020743;28;20572;-66
2024/01/11 02:04:50;;;;;;;38.30;22.00;;;-0.60;99.90;;;;;;5018603;28;20462;-66
2024/01/11 02:07:16;;;;;;;40.13;23.10;;;-0.60;99.90;;;;;;5018551;28;21153;-65
2024/01/11 02:09:43;;;;;;;40.57;22.20;;;-0.70;99.90;;;;;;5020827;28;20188;-66
2024/01/11 02:12:10;;;;;;;31.53;19.83;;;-0.70;99.90;;;;;;5018632;28;20187;-66
2024/01/11 02:14:37;;;;;;;37.80;22.17;;;-0.70;99.90;;;;;;5019558;28;20470;-66
2024/01/11 02:17:03;;;;;;;38.70;23.23;;;-0.70;99.90;;;;;;5026846;28;20536;-65
2024/01/11 02:19:29;;;;;;;36.17;22.70;;;-0.70;99.90;;;;;;5018610;28;20443;-65
2024/01/11 02:21:55;;;;;;;37.10;21.77;;;-0.70;99.90;;;;;;5020471;28;20332;-66
2024/01/11 02:24:21;;;;;;;36.73;21.63;;;-0.70;99.90;;;;;;5018204;28;20214;-65
2024/01/11 02:27:02;;;;;;;39.20;23.03;;;-0.70;99.90;;;;;;5022583;28;20430;-66
2024/01/11 02:29:29;;;;;;;36.63;22.53;;;-0.70;99.90;;;;;;5018111;28;20184;-65
2024/01/11 02:31:58;;;;;;;44.27;22.60;;;-0.70;99.90;;;;;;5023892;28;20438;-65
2024/01/11 02:34:26;;;;;;;36.87;22.40;;;-0.70;99.90;;;;;;5014856;28;20548;-65
2024/01/11 02:36:52;;;;;;;41.53;22.13;;;-0.70;99.90;;;;;;5016524;28;20432;-65
2024/01/11 02:39:19;;;;;;;41.63;21.77;;;-0.70;99.90;;;;;;5016313;28;20448;-66
2024/01/11 02:41:45;;;;;;;33.40;20.90;;;-0.80;99.90;;;;;;5023396;28;20940;-66
2024/01/11 02:44:11;;;;;;;37.33;21.87;;;-0.80;99.90;;;;;;5019086;28;20574;-65
2024/01/11 02:46:36;;;;;;;47.73;23.90;;;-0.80;99.90;;;;;;5018576;28;20912;-65
2024/01/11 02:49:02;;;;;;;38.43;20.17;;;-0.80;99.90;;;;;;5013725;28;20267;-65
2024/01/11 02:51:27;;;;;;;33.77;22.03;;;-0.80;99.90;;;;;;5015295;28;20185;-65
2024/01/11 02:53:53;;;;;;;36.80;21.27;;;-0.80;99.90;;;;;;5025915;28;20218;-65
2024/01/11 02:56:18;;;;;;;34.73;21.40;;;-0.80;99.90;;;;;;5016991;28;20195;-65
2024/01/11 02:58:44;;;;;;;44.43;22.03;;;-0.80;99.90;;;;;;5023287;28;20270;-65
2024/01/11 03:01:10;;;;;;;39.40;22.33;;;-0.80;99.90;;;;;;5016439;28;20196;-65
2024/01/11 03:03:35;;;;;;;42.53;22.10;;;-0.80;99.90;;;;;;5022331;28;20203;-65
2024/01/11 03:06:01;;;;;;;37.67;22.23;;;-0.80;99.90;;;;;;5024730;28;20188;-65
2024/01/11 03:08:26;;;;;;;32.40;20.30;;;-0.80;99.90;;;;;;5018965;28;20256;-65
2024/01/11 03:10:52;;;;;;;44.90;20.57;;;-0.80;99.90;;;;;;5017357;28;20610;-65
2024/01/11 03:13:19;;;;;;;32.60;20.90;;;-0.90;99.90;;;;;;5013569;28;20228;-65
2024/01/11 03:15:44;;;;;;;33.80;20.50;;;-0.90;99.90;;;;;;5016964;28;20521;-65
2024/01/11 03:18:10;;;;;;;36.83;20.80;;;-0.90;99.90;;;;;;5015176;28;20200;-65
2024/01/11 03:20:35;;;;;;;39.90;20.87;;;-0.90;99.90;;;;;;5013585;28;20255;-65
2024/01/11 03:23:01;;;;;;;44.37;23.00;;;-0.90;99.90;;;;;;5020609;28;20611;-65
2024/01/11 03:25:28;;;;;;;33.53;20.80;;;-0.90;99.90;;;;;;5015237;28;20793;-65
2024/01/11 03:27:54;;;;;;;32.70;19.70;;;-0.90;99.90;;;;;;5015716;28;20988;-65
2024/01/11 03:30:19;;;;;;;38.00;22.00;;;-0.90;99.90;;;;;;5021787;28;20435;-65
2024/01/11 03:32:45;;;;;;;37.47;20.73;;;-1.00;99.90;;;;;;5015494;28;20282;-65
2024/01/11 03:35:11;;;;;;;36.70;21.10;;;-1.00;99.90;;;;;;5016331;28;20266;-65
2024/01/11 03:37:36;;;;;;;40.13;20.20;;;-1.00;99.90;;;;;;5015148;28;20185;-65
2024/01/11 03:40:03;;;;;;;30.60;19.87;;;-1.10;99.90;;;;;;5015602;28;20232;-65
2024/01/11 03:42:29;;;;;;;39.43;22.27;;;-1.00;99.90;;;;;;5022812;28;20197;-65
2024/01/11 03:44:55;;;;;;;45.17;21.80;;;-1.00;99.90;;;;;;5024328;28;20472;-65
2024/01/11 03:47:21;;;;;;;37.87;21.03;;;-1.00;99.90;;;;;;5013848;28;20273;-65
2024/01/11 03:49:46;;;;;;;37.53;22.07;;;-1.10;99.90;;;;;;5013003;28;20996;-65
2024/01/11 03:52:12;;;;;;;38.13;21.80;;;-1.10;99.90;;;;;;5017829;28;20211;-65
2024/01/11 03:54:37;;;;;;;40.13;20.33;;;-1.10;99.90;;;;;;5013543;28;20250;-65
2024/01/11 03:57:03;;;;;;;35.67;21.57;;;-1.10;99.90;;;;;;5021482;28;20192;-65
2024/01/11 03:59:29;;;;;;;38.13;20.90;;;-1.10;99.90;;;;;;5014083;28;20839;-66
2024/01/11 04:01:55;;;;;;;36.67;20.47;;;-1.10;99.90;;;;;;5016708;28;20210;-66
2024/01/11 04:04:22;;;;;;;32.17;20.07;;;-1.10;99.90;;;;;;5013051;28;20740;-65
2024/01/11 04:06:47;;;;;;;30.57;19.77;;;-1.10;99.90;;;;;;5019401;28;20436;-66
2024/01/11 04:09:13;;;;;;;38.00;20.50;;;-1.10;99.90;;;;;;5014033;28;20424;-66
2024/01/11 04:11:39;;;;;;;33.37;19.00;;;-1.10;99.90;;;;;;5013500;28;20982;-65
2024/01/11 04:14:04;;;;;;;35.03;19.80;;;-1.10;99.90;;;;;;5013286;28;20230;-65
2024/01/11 04:16:30;;;;;;;31.77;18.70;;;-1.10;99.90;;;;;;5009645;28;20603;-66
2024/01/11 04:18:55;;;;;;;37.03;20.47;;;-1.10;99.90;;;;;;5013459;28;20290;-66
2024/01/11 04:21:28;;;;;;;38.17;21.50;;;-1.10;99.90;;;;;;5017422;28;20213;-65
2024/01/11 04:23:54;;;;;;;33.57;19.90;;;-1.10;99.90;;;;;;5018419;28;20212;-65
2024/01/11 04:26:21;;;;;;;34.97;20.00;;;-1.10;99.90;;;;;;4997284;28;20667;-65
2024/01/11 04:28:47;;;;;;;39.30;21.17;;;-1.10;99.90;;;;;;5014470;28;20433;-65
2024/01/11 04:31:14;;;;;;;36.80;19.40;;;-1.10;99.90;;;;;;5018485;28;20839;-65
2024/01/11 04:33:43;;;;;;;36.33;21.47;;;-1.10;99.90;;;;;;5015806;28;20968;-65
2024/01/11 04:36:09;;;;;;;32.73;19.90;;;-1.20;99.90;;;;;;5017054;28;20473;-65
2024/01/11 04:38:35;;;;;;;33.90;19.60;;;-1.10;99.90;;;;;;5008880;28;20982;-66
2024/01/11 04:41:01;;;;;;;36.83;21.17;;;-1.20;99.90;;;;;;5017252;28;20979;-65
2024/01/11 04:43:26;;;;;;;38.67;21.20;;;-1.10;99.90;;;;;;5011590;28;20453;-66
2024/01/11 04:45:52;;;;;;;33.40;20.60;;;-1.20;99.90;;;;;;5019426;28;20186;-65
2024/01/11 04:48:18;;;;;;;33.00;19.10;;;-1.20;99.90;;;;;;5014612;28;20677;-65
2024/01/11 04:50:45;;;;;;;35.03;21.10;;;-1.20;99.90;;;;;;5018443;28;20191;-65
2024/01/11 04:53:11;;;;;;;35.43;19.73;;;-1.20;99.90;;;;;;5013588;28;20488;-65
2024/01/11 04:55:36;;;;;;;40.33;20.70;;;-1.20;99.90;;;;;;5014041;28;21110;-66
2024/01/11 04:58:02;;;;;;;35.13;21.33;;;-1.20;99.90;;;;;;5014086;28;20425;-65
2024/01/11 05:00:27;;;;;;;33.60;19.73;;;-1.20;99.90;;;;;;5014929;28;20200;-66
2024/01/11 05:02:53;;;;;;;39.77;19.43;;;-1.20;99.90;;;;;;5016527;28;20675;-65
2024/01/11 05:05:19;;;;;;;40.37;20.93;;;-1.20;99.90;;;;;;5015452;28;20713;-65
2024/01/11 05:07:44;;;;;;;30.83;18.50;;;-1.20;99.90;;;;;;5021467;28;20267;-65
2024/01/11 05:10:10;;;;;;;34.27;19.70;;;-1.20;99.90;;;;;;5020101;28;20192;-65
2024/01/11 05:12:36;;;;;;;33.27;19.37;;;-1.20;99.90;;;;;;5011432;28;20812;-65
2024/01/11 05:15:02;;;;;;;43.83;21.60;;;-1.20;99.90;;;;;;5016073;28;20211;-65
2024/01/11 05:17:28;;;;;;;34.03;19.40;;;-1.20;99.90;;;;;;5019617;28;20414;-65
2024/01/11 05:19:54;;;;;;;34.67;20.77;;;-1.20;99.90;;;;;;5016218;28;20437;-65
2024/01/11 05:22:19;;;;;;;34.43;19.80;;;-1.20;99.90;;;;;;5019342;28;20219;-65
2024/01/11 05:24:45;;;;;;;35.07;21.87;;;-1.20;99.90;;;;;;5019515;28;20267;-65
2024/01/11 05:27:10;;;;;;;42.50;20.17;;;-1.20;99.90;;;;;;5022236;28;20181;-65
2024/01/11 05:29:36;;;;;;;34.70;19.27;;;-1.20;99.90;;;;;;5014786;28;20182;-65
2024/01/11 05:32:01;;;;;;;33.93;21.40;;;-1.20;99.90;;;;;;5015716;28;20187;-66
2024/01/11 05:34:27;;;;;;;31.50;21.67;;;-1.20;99.90;;;;;;5015481;28;20601;-67
2024/01/11 05:36:52;;;;;;;37.20;21.40;;;-1.20;99.90;;;;;;5020817;28;20296;-67
2024/01/11 05:39:18;;;;;;;37.57;20.03;;;-1.20;99.90;;;;;;5017528;28;20296;-64
2024/01/11 05:41:45;;;;;;;37.70;20.30;;;-1.20;99.90;;;;;;5013816;28;20214;-64
2024/01/11 05:44:10;;;;;;;31.20;19.23;;;-1.20;99.90;;;;;;5016076;28;20211;-66
2024/01/11 05:46:36;;;;;;;34.47;19.07;;;-1.20;99.90;;;;;;5020609;28;20462;-65
2024/01/11 05:49:01;;;;;;;34.80;19.63;;;-1.20;99.90;;;;;;5017253;28;20721;-66
2024/01/11 05:51:27;;;;;;;34.80;20.53;;;-1.20;99.90;;;;;;5018048;28;20274;-66
2024/01/11 05:53:53;;;;;;;36.90;20.80;;;-1.20;99.90;;;;;;5020869;28;20212;-66
2024/01/11 05:56:20;;;;;;;33.93;19.90;;;-1.20;99.90;;;;;;5014904;28;20726;-65
2024/01/11 05:58:45;;;;;;;34.60;20.43;;;-1.30;99.90;;;;;;5017242;28;20274;-66
2024/01/11 06:01:11;;;;;;;37.30;19.97;;;-1.20;99.90;;;;;;5016813;28;20580;-65
2024/01/11 06:03:38;;;;;;;40.87;20.17;;;-1.20;99.90;;;;;;5014797;28;20626;-65
2024/01/11 06:06:05;;;;;;;38.30;20.40;;;-1.30;99.90;;;;;;5016907;28;20248;-65
2024/01/11 06:08:30;;;;;;;35.07;18.90;;;-1.20;99.90;;;;;;5016420;28;20551;-65
2024/01/11 06:10:57;;;;;;;34.10;21.17;;;-1.30;99.90;;;;;;5012862;28;21179;-65
2024/01/11 06:13:22;;;;;;;34.33;19.40;;;-1.40;99.90;;;;;;5017669;28;20212;-66
2024/01/11 06:15:48;;;;;;;31.10;19.43;;;-1.40;99.90;;;;;;5011863;28;20809;-66
2024/01/11 06:18:14;;;;;;;32.63;19.87;;;-1.30;99.90;;;;;;5017955;28;20182;-66
2024/01/11 06:20:39;;;;;;;33.00;20.87;;;-1.30;99.90;;;;;;5010521;28;20465;-66
2024/01/11 06:23:05;;;;;;;42.67;21.83;;;-1.30;99.90;;;;;;5022718;28;20213;-66
2024/01/11 06:25:30;;;;;;;35.40;17.80;;;-1.30;99.90;;;;;;5009703;28;20198;-66
2024/01/11 06:27:56;;;;;;;39.93;21.03;;;-1.30;99.90;;;;;;5015569;28;20200;-66
2024/01/11 06:30:22;;;;;;;38.73;22.10;;;-1.30;99.90;;;;;;5019628;28;20185;-66
2024/01/11 06:32:47;;;;;;;34.20;19.63;;;-1.30;99.90;;;;;;5014575;28;20219;-66
2024/01/11 06:35:13;;;;;;;33.27;19.50;;;-1.30;99.90;;;;;;5017304;28;20511;-66
2024/01/11 06:37:39;;;;;;;33.80;19.77;;;-1.40;99.90;;;;;;5018061;28;20386;-66
2024/01/11 06:40:07;;;;;;;37.07;19.63;;;-1.40;99.90;;;;;;5023678;28;20183;-65
2024/01/11 06:42:33;;;;;;;40.17;21.10;;;-1.40;99.90;;;;;;5018460;28;20186;-67
2024/01/11 06:44:59;;;;;;;38.00;20.53;;;-1.40;99.90;;;;;;5014838;28;20435;-66
2024/01/11 06:47:24;;;;;;;42.10;21.77;;;-1.40;99.90;;;;;;5016883;28;20181;-65
2024/01/11 06:49:50;;;;;;;34.60;20.83;;;-1.40;99.90;;;;;;5022307;28;20227;-66
2024/01/11 06:52:15;;;;;;;33.87;19.50;;;-1.40;99.90;;;;;;5016624;28;20182;-66
2024/01/11 06:54:41;;;;;;;32.80;20.20;;;-1.40;99.90;;;;;;5018052;28;20199;-66
2024/01/11 06:57:07;;;;;;;34.47;19.03;;;-1.40;99.90;;;;;;5023258;28;20186;-66
2024/01/11 06:59:33;;;;;;;32.40;18.70;;;-1.40;99.90;;;;;;5012618;28;20183;-65
2024/01/11 07:01:58;;;;;;;34.40;18.97;;;-1.40;99.90;;;;;;5021581;28;20558;-66
2024/01/11 07:04:24;;;;;;;37.47;19.00;;;-1.40;99.90;;;;;;5019101;28;20247;-65
2024/01/11 07:06:50;;;;;;;36.80;19.90;;;-1.40;99.90;;;;;;5023192;28;20193;-66
2024/01/11 07:09:16;;;;;;;36.90;21.23;;;-1.40;99.90;;;;;;5021464;28;20213;-66
2024/01/11 07:11:43;;;;;;;31.97;19.60;;;-1.40;99.90;;;;;;5020314;28;20211;-66
2024/01/11 07:14:08;;;;;;;33.07;18.70;;;-1.40;99.90;;;;;;5018720;28;20527;-66
2024/01/11 07:16:34;;;;;;;34.87;20.67;;;-1.40;99.90;;;;;;5021782;28;20502;-65
2024/01/11 07:18:59;;;;;;;36.80;19.30;;;-1.50;99.90;;;;;;5017263;28;20199;-65
2024/01/11 07:21:29;;;;;;;38.57;21.70;;;-1.40;99.90;;;;;;5025455;28;20215;-65
2024/01/11 07:23:58;;;;;;;32.43;19.80;;;-1.50;99.90;;;;;;5018664;28;20235;-66
2024/01/11 07:26:24;;;;;;;38.70;20.80;;;-1.40;99.90;;;;;;5010563;28;20517;-65
2024/01/11 07:28:50;;;;;;;36.90;20.90;;;-1.40;99.90;;;;;;5025355;28;20454;-65
2024/01/11 07:31:16;;;;;;;33.47;19.80;;;-1.40;99.90;;;;;;5018202;28;20849;-65
2024/01/11 07:33:42;;;;;;;35.37;20.40;;;-1.40;99.90;;;;;;5019446;28;20206;-66
2024/01/11 07:36:09;;;;;;;40.20;21.23;;;-1.40;99.90;;;;;;5016393;28;20428;-66
2024/01/11 07:38:34;;;;;;;36.00;19.50;;;-1.50;99.90;;;;;;5016488;28;20959;-66
2024/01/11 07:41:00;;;;;;;38.73;21.60;;;-1.50;99.90;;;;;;5027051;28;20452;-66
2024/01/11 07:43:28;;;;;;;34.60;22.40;;;-1.50;99.90;;;;;;5015052;28;20232;-66
2024/01/11 07:45:54;;;;;;;44.17;21.30;;;-1.50;99.90;;;;;;5017265;28;20510;-66
2024/01/11 07:48:19;;;;;;;33.70;20.23;;;-1.50;99.90;;;;;;5011073;28;20534;-66
2024/01/11 07:50:45;;;;;;;38.60;19.87;;;-1.50;99.90;;;;;;5022747;28;20425;-66
2024/01/11 07:53:11;;;;;;;39.10;22.17;;;-1.50;99.90;;;;;;5020290;28;20772;-66
2024/01/11 07:55:37;;;;;;;37.13;21.50;;;-1.50;99.90;;;;;;5019073;28;20687;-67
2024/01/11 07:58:03;;;;;;;41.20;20.07;;;-1.50;99.90;;;;;;5021525;28;20314;-67
2024/01/11 08:00:28;;;;;;;32.10;20.40;;;-1.50;99.90;;;;;;5007636;28;20524;-68
2024/01/11 08:02:54;;;;;;;43.90;21.27;;;-1.40;99.90;;;;;;5013846;28;20199;-67
2024/01/11 08:05:20;;;;;;;37.97;21.60;;;-1.40;99.90;;;;;;5010877;28;20196;-67
2024/01/11 08:07:45;;;;;;;41.57;20.30;;;-1.40;99.90;;;;;;5019852;28;20192;-68
2024/01/11 08:10:11;;;;;;;41.43;21.50;;;-1.30;99.90;;;;;;5014749;28;20186;-68
2024/01/11 08:12:37;;;;;;;36.50;20.17;;;-1.30;99.90;;;;;;5016286;28;20185;-68
2024/01/11 08:15:03;;;;;;;36.73;21.57;;;-1.20;99.90;;;;;;5017587;28;20597;-68
2024/01/11 08:17:29;;;;;;;36.93;20.87;;;-1.20;99.90;;;;;;5019726;28;20434;-68
2024/01/11 08:19:56;;;;;;;42.77;22.17;;;-1.20;99.90;;;;;;5021107;28;20424;-69
2024/01/11 08:22:22;;;;;;;41.47;23.20;;;-1.20;99.90;;;;;;5021738;28;20202;-68
2024/01/11 08:24:48;;;;;;;36.57;21.47;;;-1.10;99.90;;;;;;5012376;28;20447;-68
2024/01/11 08:27:17;;;;;;;40.90;22.80;;;-1.10;99.90;;;;;;5014261;28;20502;-68
2024/01/11 08:29:43;;;;;;;49.87;23.13;;;-1.00;99.90;;;;;;5014780;28;20269;-66
2024/01/11 08:32:09;;;;;;;47.87;24.30;;;-1.00;99.90;;;;;;5013852;28;20553;-67
2024/01/11 08:34:34;;;;;;;55.20;24.73;;;-1.00;99.90;;;;;;5020575;28;20445;-67
2024/01/11 08:37:00;;;;;;;47.80;23.27;;;-1.10;99.90;;;;;;5019317;28;20199;-68
2024/01/11 08:39:25;;;;;;;45.10;23.63;;;-1.10;99.90;;;;;;5018825;28;20195;-68
2024/01/11 08:41:52;;;;;;;45.07;22.83;;;-1.10;99.90;;;;;;5017934;28;20233;-70
2024/01/11 08:44:18;;;;;;;35.97;22.60;;;-1.10;99.90;;;;;;5017209;28;20207;-70
2024/01/11 08:46:44;;;;;;;41.97;23.40;;;-1.00;99.90;;;;;;5023131;28;20424;-70
2024/01/11 08:49:09;;;;;;;47.53;25.13;;;-1.00;99.90;;;;;;5011503;28;20569;-71
2024/01/11 08:51:35;;;;;;;53.47;25.80;;;-1.00;99.90;;;;;;5016190;28;20451;-70
2024/01/11 08:54:01;;;;;;;47.10;25.40;;;-1.00;99.90;;;;;;5012755;28;20294;-70
2024/01/11 08:56:27;;;;;;;48.60;23.70;;;-0.90;99.90;;;;;;5017916;28;20194;-70
2024/01/11 08:58:53;;;;;;;44.40;25.73;;;-0.90;99.90;;;;;;5009527;28;20701;-71
2024/01/11 09:01:19;;;;;;;44.20;24.37;;;-0.80;99.90;;;;;;5010235;28;20474;-71
2024/01/11 09:03:47;;;;;;;51.17;25.37;;;-0.80;99.90;;;;;;5019182;28;20207;-70
2024/01/11 09:06:13;;;;;;;48.83;24.10;;;-0.80;99.90;;;;;;5017185;28;20525;-71
2024/01/11 09:08:41;;;;;;;47.10;26.40;;;-0.70;99.90;;;;;;5021013;28;20534;-70
2024/01/11 09:11:06;;;;;;;45.53;25.00;;;-0.70;99.90;;;;;;5021077;28;20557;-70
2024/01/11 09:13:32;;;;;;;41.93;22.53;;;-0.70;99.90;;;;;;5017044;28;20556;-70
2024/01/11 09:15:58;;;;;;;43.80;23.50;;;-0.70;99.90;;;;;;5019271;28;20207;-70
2024/01/11 09:18:24;;;;;;;43.40;25.53;;;-0.60;99.90;;;;;;5010919;28;20921;-70
2024/01/11 09:20:49;;;;;;;42.93;23.23;;;-0.60;99.90;;;;;;5016137;28;20950;-71
2024/01/11 09:23:16;;;;;;;44.17;23.70;;;-0.60;99.90;;;;;;5012703;28;20230;-71
2024/01/11 09:25:42;;;;;;;40.73;24.47;;;-0.50;99.90;;;;;;5018166;28;20188;-70
2024/01/11 09:28:07;;;;;;;43.33;23.17;;;-0.50;99.90;;;;;;5010016;28;21029;-71
2024/01/11 09:30:33;;;;;;;41.90;25.10;;;-0.50;99.90;;;;;;5017248;28;20181;-70
2024/01/11 09:32:58;;;;;;;46.47;22.80;;;-0.40;99.90;;;;;;5012188;28;21468;-70
2024/01/11 09:35:24;;;;;;;39.80;24.17;;;-0.40;99.90;;;;;;5010979;28;20186;-70
2024/01/11 09:37:50;;;;;;;42.30;23.90;;;-0.40;99.90;;;;;;5017004;28;20214;-70
2024/01/11 09:40:18;;;;;;;36.00;22.77;;;-0.30;99.90;;;;;;5011882;28;20190;-70
2024/01/11 09:42:43;;;;;;;41.67;25.37;;;-0.30;99.90;;;;;;5015509;28;21044;-70
2024/01/11 09:45:13;;;;;;;42.80;23.60;;;-0.20;99.90;;;;;;5014796;28;20533;-70
2024/01/11 09:47:39;;;;;;;41.30;23.90;;;-0.20;99.90;;;;;;5012138;28;20434;-70
2024/01/11 09:50:07;;;;;;;42.53;24.80;;;-0.10;99.90;;;;;;5013306;28;20453;-71
2024/01/11 09:52:32;;;;;;;41.33;24.90;;;-0.10;99.90;;;;;;5019285;28;20568;-71
2024/01/11 09:54:59;;;;;;;40.83;25.10;;;-0.10;99.90;;;;;;5013891;28;20592;-70
2024/01/11 09:57:28;;;;;;;42.13;24.17;;;0.00;99.90;;;;;;5014880;28;20204;-70
2024/01/11 09:59:56;;;;;;;41.03;24.07;;;0.00;99.90;;;;;;5012304;28;20943;-71
2024/01/11 10:02:29;;;;;;;47.17;25.20;;;0.00;99.90;;;;;;5011324;28;20469;-70
2024/01/11 10:04:54;;;;;;;41.67;23.97;;;0.10;99.90;;;;;;5018729;28;20466;-70
2024/01/11 10:07:27;;;;;;;45.30;25.40;;;0.10;99.90;;;;;;5021572;28;20438;-70
2024/01/11 10:09:53;;;;;;;48.10;26.17;;;0.10;99.90;;;;;;5010337;28;20501;-70
2024/01/11 10:12:23;;;;;;;44.37;23.87;;;0.20;99.90;;;;;;5005730;28;20450;-69
2024/01/11 10:14:48;;;;;;;41.40;24.93;;;0.20;99.90;;;;;;5015599;28;20487;-70
2024/01/11 10:17:14;;;;;;;40.97;25.10;;;0.20;99.90;;;;;;5016844;28;20431;-70
2024/01/11 10:19:40;;;;;;;41.00;24.63;;;0.30;99.90;;;;;;5013738;28;20218;-70
2024/01/11 10:22:06;;;;;;;45.30;24.97;;;0.30;99.90;;;;;;5015542;28;20223;-67
2024/01/11 10:24:32;;;;;;;46.53;25.03;;;0.30;99.90;;;;;;5019059;28;20710;-67
2024/01/11 10:27:01;;;;;;;46.60;26.60;;;0.40;99.90;;;;;;5016315;28;20427;-67
2024/01/11 10:29:38;;;;;;;42.37;25.70;;;0.40;99.90;;;;;;5020686;28;20262;-68
2024/01/11 10:32:04;;;;;;;42.00;25.50;;;0.50;99.90;;;;;;5017498;28;20456;-67
2024/01/11 10:34:30;;;;;;;45.90;25.20;;;0.50;99.90;;;;;;5018599;28;20450;-67
2024/01/11 10:36:56;;;;;;;46.07;25.17;;;0.60;99.90;;;;;;5013933;28;20450;-68
2024/01/11 10:39:27;;;;;;;46.67;26.07;;;0.70;99.90;;;;;;5015012;28;20184;-68
2024/01/11 10:42:04;;;;;;;44.07;25.87;;;0.70;99.90;;;;;;5016162;28;20708;-67
2024/01/11 10:44:33;;;;;;;47.53;26.77;;;0.70;99.90;;;;;;5020792;28;20446;-67
2024/01/11 10:47:01;;;;;;;48.77;28.53;;;0.80;99.90;;;;;;5013206;28;20442;-66
2024/01/11 10:49:27;;;;;;;46.80;26.07;;;0.90;99.90;;;;;;5014987;28;20436;-66
2024/01/11 10:52:05;;;;;;;49.57;27.87;;;0.90;99.90;;;;;;5022687;28;20431;-67
2024/01/11 10:54:34;;;;;;;47.17;29.53;;;1.00;99.90;;;;;;5018382;28;20215;-67
2024/01/11 10:57:00;;;;;;;45.50;27.17;;;1.00;99.90;;;;;;5024217;28;20880;-67
2024/01/11 10:59:27;;;;;;;60.30;30.47;;;1.10;99.90;;;;;;5015439;28;20430;-67
2024/01/11 11:01:56;;;;;;;48.33;29.33;;;1.20;99.90;;;;;;5016961;28;21234;-67
2024/01/11 11:04:22;;;;;;;41.97;26.50;;;1.20;99.90;;;;;;5012128;28;20526;-67
2024/01/11 11:06:51;;;;;;;41.90;24.93;;;1.30;99.90;;;;;;5014365;28;20500;-67
2024/01/11 11:09:18;;;;;;;43.20;27.37;;;1.30;99.90;;;;;;5017084;28;20427;-67
2024/01/11 11:11:45;;;;;;;48.10;26.43;;;1.40;99.90;;;;;;5017629;28;20521;-67
2024/01/11 11:14:15;;;;;;;47.93;26.60;;;1.50;99.90;;;;;;5016827;28;20476;-66
2024/01/11 11:16:40;;;;;;;51.70;25.87;;;1.50;99.90;;;;;;5014764;28;20466;-66
2024/01/11 11:19:06;;;;;;;49.07;27.30;;;1.50;99.90;;;;;;5007358;28;20480;-66
2024/01/11 11:21:32;;;;;;;46.30;27.27;;;1.60;99.90;;;;;;5012951;28;20204;-66
2024/01/11 11:23:58;;;;;;;49.37;26.63;;;1.60;99.90;;;;;;5014906;28;20439;-65
2024/01/11 11:26:27;;;;;;;45.43;26.10;;;1.70;99.90;;;;;;5013353;28;20181;-65
2024/01/11 11:28:52;;;;;;;47.23;26.67;;;1.70;99.90;;;;;;5009933;28;21108;-65
2024/01/11 11:31:53;;;;;;;44.40;26.43;;;1.80;99.90;;;;;;5022533;28;20436;-65
2024/01/11 11:34:20;;;;;;;40.33;25.33;;;1.80;99.90;;;;;;5019339;28;20536;-65
2024/01/11 11:36:54;;;;;;;48.50;27.40;;;1.80;99.90;;;;;;5019331;28;20426;-65
2024/01/11 11:39:20;;;;;;;44.83;25.70;;;1.90;99.90;;;;;;5018864;28;20416;-65
2024/01/11 11:41:46;;;;;;;50.10;27.60;;;1.90;99.90;;;;;;5015711;28;20469;-65
2024/01/11 11:44:15;;;;;;;39.00;25.97;;;2.00;99.90;;;;;;5013147;28;20208;-65
2024/01/11 11:46:41;;;;;;;43.87;26.83;;;2.00;99.90;;;;;;5014737;28;20416;-65
2024/01/11 11:49:07;;;;;;;42.87;25.97;;;2.10;99.90;;;;;;5011086;28;20446;-65
2024/01/11 11:51:33;;;;;;;46.73;27.80;;;2.10;99.90;;;;;;5022323;28;20855;-65
2024/01/11 11:53:58;;;;;;;48.93;26.53;;;2.20;99.90;;;;;;5018052;28;20239;-65
2024/01/11 11:56:24;;;;;;;41.23;25.77;;;2.30;99.90;;;;;;5019865;28;20694;-65
2024/01/11 11:58:52;;;;;;;43.57;25.60;;;2.30;99.90;;;;;;5016794;28;20197;-66
2024/01/11 12:01:18;;;;;;;44.90;27.17;;;2.50;99.90;;;;;;5011503;28;20513;-66
2024/01/11 12:03:51;;;;;;;39.63;25.60;;;2.60;99.90;;;;;;5017681;28;20452;-65
2024/01/11 12:06:19;;;;;;;43.57;28.00;;;2.90;99.90;;;;;;5013122;28;20187;-66
2024/01/11 12:08:48;;;;;;;44.87;25.50;;;3.40;99.90;;;;;;5016164;28;20465;-66
2024/01/11 12:11:18;;;;;;;39.60;25.03;;;4.00;99.90;;;;;;5012717;28;20482;-66
2024/01/11 12:13:44;;;;;;;40.57;26.40;;;4.40;99.90;;;;;;5015607;28;20860;-66
2024/01/11 12:16:10;;;;;;;41.17;27.60;;;4.80;99.90;;;;;;5013582;28;20514;-66
2024/01/11 12:18:36;;;;;;;50.47;27.67;;;5.60;99.90;;;;;;5010338;28;20541;-65
2024/01/11 12:21:02;;;;;;;43.00;27.13;;;6.20;99.90;;;;;;5021819;28;20935;-65
2024/01/11 12:23:30;;;;;;;41.83;26.67;;;6.60;99.90;;;;;;5028469;28;20243;-66